Somerdale, OH (44678)

5:39 PM EST on December 04, 2016 (GMT -0500)
Fox Chase | | Change Station

Elev 994 ft 40.54 °N, 81.41 °W | Updated 3 minutes ago

Overcast
Overcast
39.2 °F
Feels Like 39 °F
N
3.0
Wind Variable Wind from WSW

Today
High -- | Low -- °F
--% Chance of Precip.
Yesterday
High -- | Low -- °F
Precip. -- in
Pressure 30.03 in
Visibility 10.0 miles
Clouds Overcast 9500 ft
Windchill 39 °F
Dew Point 29 °F
Humidity 68%
Rainfall 0.00 in
Snow Depth Not available.
7:33 AM 4:58 PM
Waxing Crescent, 26% visible
METAR KPHD 042153Z AUTO 12008KT 10SM OVC095 05/M02 A3000 RMK AO2 SLP167 T00501017
Pressure 30.03 in
Visibility 10.0 miles
Clouds Overcast 9500 ft
Windchill 39 °F
Dew Point 29 °F
Humidity 68%
Rainfall 0.00 in
Snow Depth Not available.
7:33 AM 4:58 PM
Waxing Crescent, 26% visible
METAR KPHD 042153Z AUTO 12008KT 10SM OVC095 05/M02 A3000 RMK AO2 SLP167 T00501017

10-Day Weather Forecast

Almanac

Astronomy

Dec. 04, 2016 Rise Set
Actual Time
Civil Twilight
Nautical Twilight
Astronomical Twilight
Moon
Length of Visible Light
Length of Day
Tomorrow will be .
, % of the Moon is Illuminated

Today's Extremes

State Highs State Lows

Community

WunderPhotos

Upload Photos

1,955,685 photos uploaded!

WunderBlog® & News

Nearby

Air Quality

  Air Quality AQ Index Pollutant
Not available.

Snow Depth

Station Depth Elevation

Earthquake Activity

City Distance Mag. Time & Date
Minimum magnitude displayed is 2.5.

Coastal Water Temperatures

Place Temperature

Stations

Nearby Weather Stations

Station Location Temp. Windchill Dew Point Humidity Wind Precip. Elev Updated Type
                   

Watches & Warnings

There are currently no watches in effect.